sensor_id;sensor_type;location;lat;lon;timestamp;P1;durP1;ratioP1;P2;durP2;ratioP2
8909;SDS011;4490;49.072;8.804;2023-04-24T00:00:07;2.70;;;1.20;;
8909;SDS011;4490;49.072;8.804;2023-04-24T00:02:40;2.30;;;1.47;;
8909;SDS011;4490;49.072;8.804;2023-04-24T00:05:15;2.57;;;1.33;;
8909;SDS011;4490;49.072;8.804;2023-04-24T00:07:42;1.27;;;1.17;;
8909;SDS011;4490;49.072;8.804;2023-04-24T00:10:09;2.30;;;1.43;;
8909;SDS011;4490;49.072;8.804;2023-04-24T00:12:36;1.60;;;1.37;;
8909;SDS011;4490;49.072;8.804;2023-04-24T00:15:01;1.40;;;1.30;;
8909;SDS011;4490;49.072;8.804;2023-04-24T00:17:28;3.57;;;1.50;;
8909;SDS011;4490;49.072;8.804;2023-04-24T00:19:53;2.13;;;1.53;;
8909;SDS011;4490;49.072;8.804;2023-04-24T00:22:23;3.73;;;1.37;;
8909;SDS011;4490;49.072;8.804;2023-04-24T00:24:53;1.47;;;1.10;;
8909;SDS011;4490;49.072;8.804;2023-04-24T00:27:19;1.30;;;1.20;;
8909;SDS011;4490;49.072;8.804;2023-04-24T00:29:44;1.70;;;1.47;;
8909;SDS011;4490;49.072;8.804;2023-04-24T00:32:10;1.30;;;1.20;;
8909;SDS011;4490;49.072;8.804;2023-04-24T00:34:36;1.40;;;1.17;;
8909;SDS011;4490;49.072;8.804;2023-04-24T00:37:02;1.70;;;1.27;;
8909;SDS011;4490;49.072;8.804;2023-04-24T00:39:28;1.90;;;1.20;;
8909;SDS011;4490;49.072;8.804;2023-04-24T00:41:53;1.97;;;1.33;;
8909;SDS011;4490;49.072;8.804;2023-04-24T00:44:20;2.23;;;1.30;;
8909;SDS011;4490;49.072;8.804;2023-04-24T00:46:45;2.93;;;1.20;;
8909;SDS011;4490;49.072;8.804;2023-04-24T00:49:16;2.60;;;1.50;;
8909;SDS011;4490;49.072;8.804;2023-04-24T00:51:43;1.53;;;1.40;;
8909;SDS011;4490;49.072;8.804;2023-04-24T00:54:10;2.77;;;1.20;;
8909;SDS011;4490;49.072;8.804;2023-04-24T00:56:36;2.23;;;1.33;;
8909;SDS011;4490;49.072;8.804;2023-04-24T00:59:02;2.20;;;1.30;;
8909;SDS011;4490;49.072;8.804;2023-04-24T01:01:29;2.10;;;1.30;;
8909;SDS011;4490;49.072;8.804;2023-04-24T01:03:55;1.77;;;1.30;;
8909;SDS011;4490;49.072;8.804;2023-04-24T01:06:22;2.60;;;1.30;;
8909;SDS011;4490;49.072;8.804;2023-04-24T01:08:52;2.57;;;1.40;;
8909;SDS011;4490;49.072;8.804;2023-04-24T01:11:18;2.20;;;1.50;;
8909;SDS011;4490;49.072;8.804;2023-04-24T01:13:45;1.43;;;1.33;;
8909;SDS011;4490;49.072;8.804;2023-04-24T01:16:12;2.13;;;1.30;;
8909;SDS011;4490;49.072;8.804;2023-04-24T01:18:38;3.97;;;1.77;;
8909;SDS011;4490;49.072;8.804;2023-04-24T01:21:04;2.23;;;1.40;;
8909;SDS011;4490;49.072;8.804;2023-04-24T01:23:30;2.93;;;1.30;;
8909;SDS011;4490;49.072;8.804;2023-04-24T01:25:56;1.20;;;1.10;;
8909;SDS011;4490;49.072;8.804;2023-04-24T01:28:21;3.73;;;1.50;;
8909;SDS011;4490;49.072;8.804;2023-04-24T01:30:47;3.47;;;1.67;;
8909;SDS011;4490;49.072;8.804;2023-04-24T01:33:13;3.63;;;1.70;;
8909;SDS011;4490;49.072;8.804;2023-04-24T01:35:39;3.53;;;1.30;;
8909;SDS011;4490;49.072;8.804;2023-04-24T01:38:05;2.23;;;1.40;;
8909;SDS011;4490;49.072;8.804;2023-04-24T01:40:31;3.27;;;1.40;;
8909;SDS011;4490;49.072;8.804;2023-04-24T01:42:57;1.97;;;1.67;;
8909;SDS011;4490;49.072;8.804;2023-04-24T01:45:23;3.40;;;1.70;;
8909;SDS011;4490;49.072;8.804;2023-04-24T01:47:49;2.77;;;1.47;;
8909;SDS011;4490;49.072;8.804;2023-04-24T01:50:15;8.70;;;1.60;;
8909;SDS011;4490;49.072;8.804;2023-04-24T01:52:41;2.23;;;1.30;;
8909;SDS011;4490;49.072;8.804;2023-04-24T01:55:07;4.07;;;1.60;;
8909;SDS011;4490;49.072;8.804;2023-04-24T01:57:33;2.70;;;1.70;;
8909;SDS011;4490;49.072;8.804;2023-04-24T01:59:59;3.07;;;1.50;;
8909;SDS011;4490;49.072;8.804;2023-04-24T02:02:25;2.60;;;1.40;;
8909;SDS011;4490;49.072;8.804;2023-04-24T02:04:53;2.37;;;1.60;;
8909;SDS011;4490;49.072;8.804;2023-04-24T02:07:19;3.83;;;1.40;;
8909;SDS011;4490;49.072;8.804;2023-04-24T02:09:45;2.23;;;1.57;;
8909;SDS011;4490;49.072;8.804;2023-04-24T02:12:11;2.20;;;1.60;;
8909;SDS011;4490;49.072;8.804;2023-04-24T02:14:36;2.17;;;1.47;;
8909;SDS011;4490;49.072;8.804;2023-04-24T02:17:02;5.53;;;1.60;;
8909;SDS011;4490;49.072;8.804;2023-04-24T02:19:28;2.47;;;1.50;;
8909;SDS011;4490;49.072;8.804;2023-04-24T02:21:53;1.57;;;1.40;;
8909;SDS011;4490;49.072;8.804;2023-04-24T02:24:19;4.23;;;1.30;;
8909;SDS011;4490;49.072;8.804;2023-04-24T02:26:44;3.23;;;1.50;;
8909;SDS011;4490;49.072;8.804;2023-04-24T02:29:10;3.43;;;1.60;;
8909;SDS011;4490;49.072;8.804;2023-04-24T02:31:36;3.33;;;1.60;;
8909;SDS011;4490;49.072;8.804;2023-04-24T02:34:01;1.87;;;1.40;;
8909;SDS011;4490;49.072;8.804;2023-04-24T02:36:27;5.20;;;1.50;;
8909;SDS011;4490;49.072;8.804;2023-04-24T02:38:52;2.70;;;1.60;;
8909;SDS011;4490;49.072;8.804;2023-04-24T02:41:18;4.27;;;1.70;;
8909;SDS011;4490;49.072;8.804;2023-04-24T02:43:44;3.37;;;1.80;;
8909;SDS011;4490;49.072;8.804;2023-04-24T02:46:10;2.70;;;1.50;;
8909;SDS011;4490;49.072;8.804;2023-04-24T02:48:36;4.07;;;1.80;;
8909;SDS011;4490;49.072;8.804;2023-04-24T02:51:01;1.50;;;1.27;;
8909;SDS011;4490;49.072;8.804;2023-04-24T02:53:27;2.30;;;1.40;;
8909;SDS011;4490;49.072;8.804;2023-04-24T02:55:54;4.67;;;1.60;;
8909;SDS011;4490;49.072;8.804;2023-04-24T02:58:20;2.67;;;1.50;;
8909;SDS011;4490;49.072;8.804;2023-04-24T03:00:46;2.93;;;1.40;;
8909;SDS011;4490;49.072;8.804;2023-04-24T03:03:12;1.70;;;1.27;;
8909;SDS011;4490;49.072;8.804;2023-04-24T03:05:38;2.57;;;1.43;;
8909;SDS011;4490;49.072;8.804;2023-04-24T03:08:03;1.93;;;1.40;;
8909;SDS011;4490;49.072;8.804;2023-04-24T03:10:29;2.20;;;1.50;;
8909;SDS011;4490;49.072;8.804;2023-04-24T03:12:55;3.43;;;1.60;;
8909;SDS011;4490;49.072;8.804;2023-04-24T03:15:21;3.37;;;1.60;;
8909;SDS011;4490;49.072;8.804;2023-04-24T03:17:47;3.00;;;1.47;;
8909;SDS011;4490;49.072;8.804;2023-04-24T03:20:13;1.53;;;1.40;;
8909;SDS011;4490;49.072;8.804;2023-04-24T03:22:38;3.67;;;1.80;;
8909;SDS011;4490;49.072;8.804;2023-04-24T03:25:04;3.27;;;1.60;;
8909;SDS011;4490;49.072;8.804;2023-04-24T03:27:30;2.43;;;1.30;;
8909;SDS011;4490;49.072;8.804;2023-04-24T03:29:56;2.73;;;1.53;;
8909;SDS011;4490;49.072;8.804;2023-04-24T03:32:21;1.90;;;1.30;;
8909;SDS011;4490;49.072;8.804;2023-04-24T03:34:48;1.37;;;1.27;;
8909;SDS011;4490;49.072;8.804;2023-04-24T03:37:15;1.50;;;1.20;;
8909;SDS011;4490;49.072;8.804;2023-04-24T03:39:41;2.10;;;1.13;;
8909;SDS011;4490;49.072;8.804;2023-04-24T03:42:07;1.53;;;1.07;;
8909;SDS011;4490;49.072;8.804;2023-04-24T03:44:33;1.40;;;1.30;;
8909;SDS011;4490;49.072;8.804;2023-04-24T03:46:59;2.97;;;1.33;;
8909;SDS011;4490;49.072;8.804;2023-04-24T03:49:25;1.57;;;1.20;;
8909;SDS011;4490;49.072;8.804;2023-04-24T03:51:51;2.53;;;1.50;;
8909;SDS011;4490;49.072;8.804;2023-04-24T03:54:17;1.40;;;1.30;;
8909;SDS011;4490;49.072;8.804;2023-04-24T03:56:43;2.17;;;1.57;;
8909;SDS011;4490;49.072;8.804;2023-04-24T03:59:09;1.90;;;1.80;;
8909;SDS011;4490;49.072;8.804;2023-04-24T04:01:35;2.10;;;1.90;;
8909;SDS011;4490;49.072;8.804;2023-04-24T04:04:04;2.13;;;2.00;;
8909;SDS011;4490;49.072;8.804;2023-04-24T04:06:33;1.90;;;1.80;;
8909;SDS011;4490;49.072;8.804;2023-04-24T04:09:01;3.17;;;2.30;;
8909;SDS011;4490;49.072;8.804;2023-04-24T04:11:27;2.33;;;2.13;;
8909;SDS011;4490;49.072;8.804;2023-04-24T04:13:52;3.37;;;2.50;;
8909;SDS011;4490;49.072;8.804;2023-04-24T04:16:18;2.27;;;2.07;;
8909;SDS011;4490;49.072;8.804;2023-04-24T04:18:43;2.83;;;2.27;;
8909;SDS011;4490;49.072;8.804;2023-04-24T04:21:10;2.50;;;2.30;;
8909;SDS011;4490;49.072;8.804;2023-04-24T04:23:36;3.67;;;2.20;;
8909;SDS011;4490;49.072;8.804;2023-04-24T04:26:02;3.37;;;2.30;;
8909;SDS011;4490;49.072;8.804;2023-04-24T04:28:28;5.73;;;2.37;;
8909;SDS011;4490;49.072;8.804;2023-04-24T04:30:55;3.67;;;2.60;;
8909;SDS011;4490;49.072;8.804;2023-04-24T04:33:22;4.73;;;2.23;;
8909;SDS011;4490;49.072;8.804;2023-04-24T04:35:48;2.30;;;2.20;;
8909;SDS011;4490;49.072;8.804;2023-04-24T04:38:16;2.67;;;2.47;;
8909;SDS011;4490;49.072;8.804;2023-04-24T04:40:43;2.70;;;2.50;;
8909;SDS011;4490;49.072;8.804;2023-04-24T04:43:09;3.73;;;2.30;;
8909;SDS011;4490;49.072;8.804;2023-04-24T04:45:36;3.57;;;2.67;;
8909;SDS011;4490;49.072;8.804;2023-04-24T04:48:02;4.23;;;2.37;;
8909;SDS011;4490;49.072;8.804;2023-04-24T04:50:28;2.47;;;2.27;;
8909;SDS011;4490;49.072;8.804;2023-04-24T04:52:54;2.13;;;1.90;;
8909;SDS011;4490;49.072;8.804;2023-04-24T04:55:19;2.97;;;2.40;;
8909;SDS011;4490;49.072;8.804;2023-04-24T04:57:45;2.50;;;2.30;;
8909;SDS011;4490;49.072;8.804;2023-04-24T05:00:11;2.47;;;2.23;;
8909;SDS011;4490;49.072;8.804;2023-04-24T05:02:37;2.70;;;1.87;;
8909;SDS011;4490;49.072;8.804;2023-04-24T05:05:04;2.50;;;2.30;;
8909;SDS011;4490;49.072;8.804;2023-04-24T05:07:31;2.67;;;2.20;;
8909;SDS011;4490;49.072;8.804;2023-04-24T05:09:57;3.43;;;2.40;;
8909;SDS011;4490;49.072;8.804;2023-04-24T05:12:22;3.90;;;2.37;;
8909;SDS011;4490;49.072;8.804;2023-04-24T05:14:48;2.50;;;2.30;;
8909;SDS011;4490;49.072;8.804;2023-04-24T05:17:13;2.40;;;2.20;;
8909;SDS011;4490;49.072;8.804;2023-04-24T05:19:40;3.57;;;2.50;;
8909;SDS011;4490;49.072;8.804;2023-04-24T05:22:05;4.20;;;2.80;;
8909;SDS011;4490;49.072;8.804;2023-04-24T05:24:34;2.93;;;2.63;;
8909;SDS011;4490;49.072;8.804;2023-04-24T05:27:00;3.10;;;2.90;;
8909;SDS011;4490;49.072;8.804;2023-04-24T05:29:27;4.43;;;2.57;;
8909;SDS011;4490;49.072;8.804;2023-04-24T05:31:55;3.37;;;2.57;;
8909;SDS011;4490;49.072;8.804;2023-04-24T05:34:21;2.73;;;2.53;;
8909;SDS011;4490;49.072;8.804;2023-04-24T05:36:47;3.83;;;3.07;;
8909;SDS011;4490;49.072;8.804;2023-04-24T05:39:13;3.17;;;2.87;;
8909;SDS011;4490;49.072;8.804;2023-04-24T05:41:39;5.93;;;3.00;;
8909;SDS011;4490;49.072;8.804;2023-04-24T05:44:05;2.90;;;2.70;;
8909;SDS011;4490;49.072;8.804;2023-04-24T05:46:31;3.00;;;2.80;;
8909;SDS011;4490;49.072;8.804;2023-04-24T05:48:57;3.63;;;3.33;;
8909;SDS011;4490;49.072;8.804;2023-04-24T05:51:23;3.57;;;3.27;;
8909;SDS011;4490;49.072;8.804;2023-04-24T05:53:48;3.40;;;3.10;;
8909;SDS011;4490;49.072;8.804;2023-04-24T05:56:14;4.63;;;3.37;;
8909;SDS011;4490;49.072;8.804;2023-04-24T05:58:40;3.63;;;3.07;;
8909;SDS011;4490;49.072;8.804;2023-04-24T06:01:06;7.13;;;3.53;;
8909;SDS011;4490;49.072;8.804;2023-04-24T06:03:31;3.90;;;3.30;;
8909;SDS011;4490;49.072;8.804;2023-04-24T06:05:57;4.27;;;3.87;;
8909;SDS011;4490;49.072;8.804;2023-04-24T06:08:23;4.07;;;2.73;;
8909;SDS011;4490;49.072;8.804;2023-04-24T06:10:49;3.03;;;2.83;;
8909;SDS011;4490;49.072;8.804;2023-04-24T06:13:14;2.97;;;2.77;;
8909;SDS011;4490;49.072;8.804;2023-04-24T06:15:40;3.17;;;2.87;;
8909;SDS011;4490;49.072;8.804;2023-04-24T06:18:06;3.43;;;3.00;;
8909;SDS011;4490;49.072;8.804;2023-04-24T06:20:35;3.40;;;3.10;;
8909;SDS011;4490;49.072;8.804;2023-04-24T06:23:00;3.70;;;3.00;;
8909;SDS011;4490;49.072;8.804;2023-04-24T06:25:26;2.83;;;2.50;;
8909;SDS011;4490;49.072;8.804;2023-04-24T06:27:52;2.53;;;2.33;;
8909;SDS011;4490;49.072;8.804;2023-04-24T06:30:19;2.70;;;2.50;;
8909;SDS011;4490;49.072;8.804;2023-04-24T06:32:45;2.87;;;2.50;;
8909;SDS011;4490;49.072;8.804;2023-04-24T06:35:10;2.43;;;2.20;;
8909;SDS011;4490;49.072;8.804;2023-04-24T06:37:37;3.97;;;2.57;;
8909;SDS011;4490;49.072;8.804;2023-04-24T06:40:05;3.10;;;2.63;;
8909;SDS011;4490;49.072;8.804;2023-04-24T06:42:31;2.80;;;2.60;;
8909;SDS011;4490;49.072;8.804;2023-04-24T06:44:56;3.33;;;2.50;;
8909;SDS011;4490;49.072;8.804;2023-04-24T06:47:22;2.67;;;2.47;;
8909;SDS011;4490;49.072;8.804;2023-04-24T06:49:47;2.83;;;2.63;;
8909;SDS011;4490;49.072;8.804;2023-04-24T06:52:15;3.57;;;2.80;;
8909;SDS011;4490;49.072;8.804;2023-04-24T06:54:41;2.67;;;2.47;;
8909;SDS011;4490;49.072;8.804;2023-04-24T06:57:07;3.73;;;2.77;;
8909;SDS011;4490;49.072;8.804;2023-04-24T06:59:33;2.73;;;2.50;;
8909;SDS011;4490;49.072;8.804;2023-04-24T07:01:59;4.80;;;2.57;;
8909;SDS011;4490;49.072;8.804;2023-04-24T07:04:25;4.87;;;2.80;;
8909;SDS011;4490;49.072;8.804;2023-04-24T07:06:51;2.80;;;2.60;;
8909;SDS011;4490;49.072;8.804;2023-04-24T07:09:19;4.13;;;2.57;;
8909;SDS011;4490;49.072;8.804;2023-04-24T07:11:45;2.50;;;2.23;;
8909;SDS011;4490;49.072;8.804;2023-04-24T07:14:11;2.30;;;2.10;;
8909;SDS011;4490;49.072;8.804;2023-04-24T07:16:37;2.47;;;2.27;;
8909;SDS011;4490;49.072;8.804;2023-04-24T07:19:02;4.97;;;2.40;;
8909;SDS011;4490;49.072;8.804;2023-04-24T07:21:28;3.53;;;2.10;;
8909;SDS011;4490;49.072;8.804;2023-04-24T07:23:56;2.47;;;2.20;;
8909;SDS011;4490;49.072;8.804;2023-04-24T07:26:21;2.50;;;2.10;;
8909;SDS011;4490;49.072;8.804;2023-04-24T07:28:47;2.73;;;2.07;;
8909;SDS011;4490;49.072;8.804;2023-04-24T07:31:13;2.57;;;2.10;;
8909;SDS011;4490;49.072;8.804;2023-04-24T07:33:38;1.90;;;1.80;;
8909;SDS011;4490;49.072;8.804;2023-04-24T07:36:04;2.97;;;2.10;;
8909;SDS011;4490;49.072;8.804;2023-04-24T07:38:30;2.63;;;1.80;;
8909;SDS011;4490;49.072;8.804;2023-04-24T07:40:56;3.83;;;2.10;;
8909;SDS011;4490;49.072;8.804;2023-04-24T07:43:21;2.20;;;2.00;;
8909;SDS011;4490;49.072;8.804;2023-04-24T07:45:48;4.10;;;2.20;;
8909;SDS011;4490;49.072;8.804;2023-04-24T07:48:17;2.30;;;2.10;;
8909;SDS011;4490;49.072;8.804;2023-04-24T07:50:43;2.67;;;2.23;;
8909;SDS011;4490;49.072;8.804;2023-04-24T07:53:09;2.60;;;1.97;;
8909;SDS011;4490;49.072;8.804;2023-04-24T07:55:35;2.50;;;1.80;;
8909;SDS011;4490;49.072;8.804;2023-04-24T07:58:01;2.83;;;2.20;;
8909;SDS011;4490;49.072;8.804;2023-04-24T08:00:26;2.37;;;2.13;;
8909;SDS011;4490;49.072;8.804;2023-04-24T08:02:52;2.40;;;2.07;;
8909;SDS011;4490;49.072;8.804;2023-04-24T08:05:18;4.03;;;2.17;;
8909;SDS011;4490;49.072;8.804;2023-04-24T08:07:45;3.83;;;1.90;;
8909;SDS011;4490;49.072;8.804;2023-04-24T08:10:13;2.03;;;1.67;;
8909;SDS011;4490;49.072;8.804;2023-04-24T08:12:39;2.00;;;1.80;;
8909;SDS011;4490;49.072;8.804;2023-04-24T08:15:06;1.80;;;1.70;;
8909;SDS011;4490;49.072;8.804;2023-04-24T08:17:33;2.20;;;1.97;;
8909;SDS011;4490;49.072;8.804;2023-04-24T08:20:00;4.00;;;1.90;;
8909;SDS011;4490;49.072;8.804;2023-04-24T08:22:29;2.10;;;1.87;;
8909;SDS011;4490;49.072;8.804;2023-04-24T08:24:54;1.77;;;1.67;;
8909;SDS011;4490;49.072;8.804;2023-04-24T08:27:21;1.97;;;1.77;;
8909;SDS011;4490;49.072;8.804;2023-04-24T08:29:48;3.70;;;1.80;;
8909;SDS011;4490;49.072;8.804;2023-04-24T08:32:14;2.33;;;1.70;;
8909;SDS011;4490;49.072;8.804;2023-04-24T08:34:39;2.20;;;1.87;;
8909;SDS011;4490;49.072;8.804;2023-04-24T08:37:05;1.50;;;1.23;;
8909;SDS011;4490;49.072;8.804;2023-04-24T08:39:31;1.93;;;1.43;;
8909;SDS011;4490;49.072;8.804;2023-04-24T08:41:56;1.40;;;1.30;;
8909;SDS011;4490;49.072;8.804;2023-04-24T08:44:30;2.93;;;1.30;;
8909;SDS011;4490;49.072;8.804;2023-04-24T08:47:01;3.10;;;1.60;;
8909;SDS011;4490;49.072;8.804;2023-04-24T08:49:28;2.50;;;1.60;;
8909;SDS011;4490;49.072;8.804;2023-04-24T08:51:54;1.63;;;1.50;;
8909;SDS011;4490;49.072;8.804;2023-04-24T08:54:20;1.50;;;1.40;;
8909;SDS011;4490;49.072;8.804;2023-04-24T08:56:46;2.10;;;1.33;;
8909;SDS011;4490;49.072;8.804;2023-04-24T08:59:13;1.67;;;1.57;;
8909;SDS011;4490;49.072;8.804;2023-04-24T09:01:40;2.13;;;1.30;;
8909;SDS011;4490;49.072;8.804;2023-04-24T09:04:07;1.83;;;1.23;;
8909;SDS011;4490;49.072;8.804;2023-04-24T09:06:37;1.60;;;1.50;;
8909;SDS011;4490;49.072;8.804;2023-04-24T09:09:03;1.40;;;1.30;;
8909;SDS011;4490;49.072;8.804;2023-04-24T09:11:30;1.50;;;1.40;;
8909;SDS011;4490;49.072;8.804;2023-04-24T09:13:58;1.40;;;1.30;;
8909;SDS011;4490;49.072;8.804;2023-04-24T09:16:24;5.03;;;1.43;;
8909;SDS011;4490;49.072;8.804;2023-04-24T09:18:51;1.57;;;1.30;;
8909;SDS011;4490;49.072;8.804;2023-04-24T09:21:17;1.93;;;1.50;;
8909;SDS011;4490;49.072;8.804;2023-04-24T09:23:46;2.13;;;1.93;;
8909;SDS011;4490;49.072;8.804;2023-04-24T09:26:12;2.13;;;1.43;;
8909;SDS011;4490;49.072;8.804;2023-04-24T09:28:39;1.50;;;1.40;;
8909;SDS011;4490;49.072;8.804;2023-04-24T09:36:30;3.20;;;1.70;;
8909;SDS011;4490;49.072;8.804;2023-04-24T09:39:02;2.83;;;1.80;;
8909;SDS011;4490;49.072;8.804;2023-04-24T09:41:44;1.80;;;1.70;;
8909;SDS011;4490;49.072;8.804;2023-04-24T09:44:11;1.90;;;1.80;;
8909;SDS011;4490;49.072;8.804;2023-04-24T09:46:38;4.40;;;2.20;;
8909;SDS011;4490;49.072;8.804;2023-04-24T09:49:07;2.73;;;2.03;;
8909;SDS011;4490;49.072;8.804;2023-04-24T09:51:35;2.23;;;1.70;;
8909;SDS011;4490;49.072;8.804;2023-04-24T09:54:13;3.83;;;2.10;;
8909;SDS011;4490;49.072;8.804;2023-04-24T09:56:44;2.80;;;2.10;;
8909;SDS011;4490;49.072;8.804;2023-04-24T09:59:11;2.30;;;2.10;;
8909;SDS011;4490;49.072;8.804;2023-04-24T10:01:38;3.57;;;2.40;;
8909;SDS011;4490;49.072;8.804;2023-04-24T10:04:06;2.63;;;2.20;;
8909;SDS011;4490;49.072;8.804;2023-04-24T10:06:42;2.70;;;2.30;;
8909;SDS011;4490;49.072;8.804;2023-04-24T10:09:08;2.90;;;2.37;;
8909;SDS011;4490;49.072;8.804;2023-04-24T10:11:35;5.60;;;2.70;;
8909;SDS011;4490;49.072;8.804;2023-04-24T10:14:01;3.73;;;2.70;;
8909;SDS011;4490;49.072;8.804;2023-04-24T10:16:28;4.27;;;2.80;;
8909;SDS011;4490;49.072;8.804;2023-04-24T10:18:56;5.40;;;3.20;;
8909;SDS011;4490;49.072;8.804;2023-04-24T10:21:25;4.03;;;3.63;;
8909;SDS011;4490;49.072;8.804;2023-04-24T10:23:52;3.17;;;2.90;;
8909;SDS011;4490;49.072;8.804;2023-04-24T10:26:18;3.37;;;3.00;;
8909;SDS011;4490;49.072;8.804;2023-04-24T10:28:45;3.20;;;2.90;;
8909;SDS011;4490;49.072;8.804;2023-04-24T10:31:12;4.50;;;2.90;;
8909;SDS011;4490;49.072;8.804;2023-04-24T10:33:38;3.67;;;3.10;;
8909;SDS011;4490;49.072;8.804;2023-04-24T10:36:09;2.73;;;2.50;;
8909;SDS011;4490;49.072;8.804;2023-04-24T10:38:36;3.03;;;2.80;;
8909;SDS011;4490;49.072;8.804;2023-04-24T10:41:08;2.63;;;2.43;;
8909;SDS011;4490;49.072;8.804;2023-04-24T10:43:40;3.57;;;2.40;;
8909;SDS011;4490;49.072;8.804;2023-04-24T10:46:07;3.23;;;2.40;;
8909;SDS011;4490;49.072;8.804;2023-04-24T10:48:35;2.50;;;2.20;;
8909;SDS011;4490;49.072;8.804;2023-04-24T10:51:01;3.03;;;2.53;;
8909;SDS011;4490;49.072;8.804;2023-04-24T10:53:28;3.73;;;2.20;;
8909;SDS011;4490;49.072;8.804;2023-04-24T10:55:58;2.30;;;2.10;;
8909;SDS011;4490;49.072;8.804;2023-04-24T10:58:24;2.37;;;2.20;;
8909;SDS011;4490;49.072;8.804;2023-04-24T11:01:11;2.60;;;2.40;;
8909;SDS011;4490;49.072;8.804;2023-04-24T11:03:55;3.93;;;2.17;;
8909;SDS011;4490;49.072;8.804;2023-04-24T11:09:01;5.10;;;2.87;;
8909;SDS011;4490;49.072;8.804;2023-04-24T11:11:32;3.47;;;2.50;;
8909;SDS011;4490;49.072;8.804;2023-04-24T11:19:01;3.33;;;2.77;;
8909;SDS011;4490;49.072;8.804;2023-04-24T11:24:24;4.93;;;2.80;;
8909;SDS011;4490;49.072;8.804;2023-04-24T11:27:19;4.07;;;3.03;;
8909;SDS011;4490;49.072;8.804;2023-04-24T11:33:02;3.27;;;2.80;;
8909;SDS011;4490;49.072;8.804;2023-04-24T11:37:42;2.77;;;2.30;;
8909;SDS011;4490;49.072;8.804;2023-04-24T11:40:11;5.90;;;2.60;;
8909;SDS011;4490;49.072;8.804;2023-04-24T11:42:42;2.60;;;2.40;;
8909;SDS011;4490;49.072;8.804;2023-04-24T11:45:13;4.33;;;2.70;;
8909;SDS011;4490;49.072;8.804;2023-04-24T11:47:40;4.70;;;2.70;;
8909;SDS011;4490;49.072;8.804;2023-04-24T11:50:10;2.97;;;2.70;;
8909;SDS011;4490;49.072;8.804;2023-04-24T11:52:37;5.50;;;2.97;;
8909;SDS011;4490;49.072;8.804;2023-04-24T11:55:06;3.37;;;2.90;;
8909;SDS011;4490;49.072;8.804;2023-04-24T11:57:33;3.40;;;3.10;;
8909;SDS011;4490;49.072;8.804;2023-04-24T12:00:01;3.57;;;2.90;;
8909;SDS011;4490;49.072;8.804;2023-04-24T12:02:29;3.77;;;3.47;;
8909;SDS011;4490;49.072;8.804;2023-04-24T12:04:55;4.10;;;3.23;;
8909;SDS011;4490;49.072;8.804;2023-04-24T12:07:21;4.13;;;3.73;;
8909;SDS011;4490;49.072;8.804;2023-04-24T12:09:49;4.10;;;3.70;;
8909;SDS011;4490;49.072;8.804;2023-04-24T12:12:25;5.87;;;3.40;;
8909;SDS011;4490;49.072;8.804;2023-04-24T12:14:52;4.70;;;3.50;;
8909;SDS011;4490;49.072;8.804;2023-04-24T12:17:29;4.00;;;3.40;;
8909;SDS011;4490;49.072;8.804;2023-04-24T12:19:57;3.90;;;3.60;;
8909;SDS011;4490;49.072;8.804;2023-04-24T12:22:27;4.80;;;3.67;;
8909;SDS011;4490;49.072;8.804;2023-04-24T12:25:09;3.77;;;3.17;;
8909;SDS011;4490;49.072;8.804;2023-04-24T12:27:36;3.87;;;3.30;;
8909;SDS011;4490;49.072;8.804;2023-04-24T12:30:03;3.27;;;2.97;;
8909;SDS011;4490;49.072;8.804;2023-04-24T12:32:30;3.97;;;2.90;;
8909;SDS011;4490;49.072;8.804;2023-04-24T12:34:56;3.13;;;2.93;;
8909;SDS011;4490;49.072;8.804;2023-04-24T12:37:23;5.80;;;2.93;;
8909;SDS011;4490;49.072;8.804;2023-04-24T12:42:32;3.37;;;3.03;;
8909;SDS011;4490;49.072;8.804;2023-04-24T12:44:58;4.00;;;3.03;;
8909;SDS011;4490;49.072;8.804;2023-04-24T12:47:26;4.53;;;3.10;;
8909;SDS011;4490;49.072;8.804;2023-04-24T12:49:52;3.97;;;3.53;;
8909;SDS011;4490;49.072;8.804;2023-04-24T12:52:20;6.23;;;3.57;;
8909;SDS011;4490;49.072;8.804;2023-04-24T12:54:46;5.33;;;3.73;;
8909;SDS011;4490;49.072;8.804;2023-04-24T12:57:12;3.70;;;3.37;;
8909;SDS011;4490;49.072;8.804;2023-04-24T12:59:37;3.40;;;3.10;;
8909;SDS011;4490;49.072;8.804;2023-04-24T13:02:04;5.03;;;3.60;;
8909;SDS011;4490;49.072;8.804;2023-04-24T13:04:30;3.33;;;2.73;;
8909;SDS011;4490;49.072;8.804;2023-04-24T13:06:57;4.13;;;3.10;;
8909;SDS011;4490;49.072;8.804;2023-04-24T13:09:22;3.47;;;3.17;;
8909;SDS011;4490;49.072;8.804;2023-04-24T13:11:49;4.60;;;3.10;;
8909;SDS011;4490;49.072;8.804;2023-04-24T13:14:15;4.03;;;3.00;;
8909;SDS011;4490;49.072;8.804;2023-04-24T13:16:41;5.70;;;3.53;;
8909;SDS011;4490;49.072;8.804;2023-04-24T13:19:06;4.60;;;3.07;;
8909;SDS011;4490;49.072;8.804;2023-04-24T13:21:32;4.97;;;3.30;;
8909;SDS011;4490;49.072;8.804;2023-04-24T13:23:58;3.20;;;3.00;;
8909;SDS011;4490;49.072;8.804;2023-04-24T13:26:24;5.33;;;3.40;;
8909;SDS011;4490;49.072;8.804;2023-04-24T13:28:50;5.20;;;3.40;;
8909;SDS011;4490;49.072;8.804;2023-04-24T13:31:15;3.93;;;3.00;;
8909;SDS011;4490;49.072;8.804;2023-04-24T13:33:42;5.23;;;3.20;;
8909;SDS011;4490;49.072;8.804;2023-04-24T13:36:07;4.17;;;3.33;;
8909;SDS011;4490;49.072;8.804;2023-04-24T13:38:34;3.60;;;3.30;;
8909;SDS011;4490;49.072;8.804;2023-04-24T13:40:59;4.07;;;3.23;;
8909;SDS011;4490;49.072;8.804;2023-04-24T13:43:25;3.43;;;3.13;;
8909;SDS011;4490;49.072;8.804;2023-04-24T13:45:51;3.03;;;2.73;;
8909;SDS011;4490;49.072;8.804;2023-04-24T13:48:17;2.77;;;2.57;;
8909;SDS011;4490;49.072;8.804;2023-04-24T13:50:43;5.50;;;3.43;;
8909;SDS011;4490;49.072;8.804;2023-04-24T13:53:09;3.10;;;2.80;;
8909;SDS011;4490;49.072;8.804;2023-04-24T13:55:35;3.40;;;3.10;;
8909;SDS011;4490;49.072;8.804;2023-04-24T13:58:01;4.20;;;3.43;;
8909;SDS011;4490;49.072;8.804;2023-04-24T14:00:27;5.13;;;3.20;;
8909;SDS011;4490;49.072;8.804;2023-04-24T14:02:53;3.87;;;3.47;;
8909;SDS011;4490;49.072;8.804;2023-04-24T14:05:18;3.87;;;3.47;;
8909;SDS011;4490;49.072;8.804;2023-04-24T14:07:46;4.57;;;2.80;;
8909;SDS011;4490;49.072;8.804;2023-04-24T14:10:11;5.17;;;3.37;;
8909;SDS011;4490;49.072;8.804;2023-04-24T14:12:37;3.67;;;3.30;;
8909;SDS011;4490;49.072;8.804;2023-04-24T14:15:03;5.07;;;3.50;;
8909;SDS011;4490;49.072;8.804;2023-04-24T14:17:29;4.20;;;3.33;;
8909;SDS011;4490;49.072;8.804;2023-04-24T14:19:56;3.73;;;3.40;;
8909;SDS011;4490;49.072;8.804;2023-04-24T14:22:22;3.47;;;3.13;;
8909;SDS011;4490;49.072;8.804;2023-04-24T14:24:47;6.60;;;4.80;;
8909;SDS011;4490;49.072;8.804;2023-04-24T14:27:13;3.60;;;3.30;;
8909;SDS011;4490;49.072;8.804;2023-04-24T14:29:39;3.67;;;3.37;;
8909;SDS011;4490;49.072;8.804;2023-04-24T14:32:05;5.03;;;3.10;;
8909;SDS011;4490;49.072;8.804;2023-04-24T14:34:31;3.07;;;2.77;;
8909;SDS011;4490;49.072;8.804;2023-04-24T14:36:56;3.50;;;3.20;;
8909;SDS011;4490;49.072;8.804;2023-04-24T14:39:23;4.03;;;3.00;;
8909;SDS011;4490;49.072;8.804;2023-04-24T14:41:49;4.57;;;3.20;;
8909;SDS011;4490;49.072;8.804;2023-04-24T14:44:14;3.30;;;3.00;;
8909;SDS011;4490;49.072;8.804;2023-04-24T14:46:41;3.70;;;3.30;;
8909;SDS011;4490;49.072;8.804;2023-04-24T14:49:07;5.33;;;3.87;;
8909;SDS011;4490;49.072;8.804;2023-04-24T14:51:34;4.07;;;3.00;;
8909;SDS011;4490;49.072;8.804;2023-04-24T14:54:00;4.93;;;3.03;;
8909;SDS011;4490;49.072;8.804;2023-04-24T14:56:26;2.97;;;2.73;;
8909;SDS011;4490;49.072;8.804;2023-04-24T14:58:52;2.87;;;2.67;;
8909;SDS011;4490;49.072;8.804;2023-04-24T15:01:18;3.47;;;2.80;;
8909;SDS011;4490;49.072;8.804;2023-04-24T15:03:43;3.47;;;2.40;;
8909;SDS011;4490;49.072;8.804;2023-04-24T15:06:09;2.60;;;2.40;;
8909;SDS011;4490;49.072;8.804;2023-04-24T15:08:35;2.80;;;2.57;;
8909;SDS011;4490;49.072;8.804;2023-04-24T15:11:00;6.10;;;3.13;;
8909;SDS011;4490;49.072;8.804;2023-04-24T15:13:26;2.60;;;2.40;;
8909;SDS011;4490;49.072;8.804;2023-04-24T15:15:52;3.00;;;2.63;;
8909;SDS011;4490;49.072;8.804;2023-04-24T15:18:17;3.67;;;2.50;;
8909;SDS011;4490;49.072;8.804;2023-04-24T15:20:43;2.73;;;2.53;;
8909;SDS011;4490;49.072;8.804;2023-04-24T15:23:08;3.00;;;2.80;;
8909;SDS011;4490;49.072;8.804;2023-04-24T15:25:34;2.90;;;2.57;;
8909;SDS011;4490;49.072;8.804;2023-04-24T15:28:00;3.53;;;2.80;;
8909;SDS011;4490;49.072;8.804;2023-04-24T15:30:26;4.23;;;2.20;;
8909;SDS011;4490;49.072;8.804;2023-04-24T15:32:52;2.50;;;2.30;;
8909;SDS011;4490;49.072;8.804;2023-04-24T15:35:18;2.87;;;2.47;;